sensor_id;sensor_type;location;lat;lon;timestamp;P1;durP1;ratioP1;P2;durP2;ratioP2
61383;SDS011;47254;49.346;8.798;2022-07-29T00:02:15;8.48;;;3.40;;
61383;SDS011;47254;49.346;8.798;2022-07-29T00:04:40;4.37;;;3.20;;
61383;SDS011;47254;49.346;8.798;2022-07-29T00:07:05;6.93;;;4.00;;
61383;SDS011;47254;49.346;8.798;2022-07-29T00:09:33;5.10;;;3.45;;
61383;SDS011;47254;49.346;8.798;2022-07-29T00:12:00;4.40;;;3.35;;
61383;SDS011;47254;49.346;8.798;2022-07-29T00:14:25;9.27;;;3.20;;
61383;SDS011;47254;49.346;8.798;2022-07-29T00:16:50;10.77;;;3.67;;
61383;SDS011;47254;49.346;8.798;2022-07-29T00:19:16;4.50;;;2.83;;
61383;SDS011;47254;49.346;8.798;2022-07-29T00:21:41;4.80;;;3.40;;
61383;SDS011;47254;49.346;8.798;2022-07-29T00:24:06;4.50;;;3.42;;
61383;SDS011;47254;49.346;8.798;2022-07-29T00:26:34;5.60;;;3.05;;
61383;SDS011;47254;49.346;8.798;2022-07-29T00:29:00;5.25;;;2.78;;
61383;SDS011;47254;49.346;8.798;2022-07-29T00:31:25;5.85;;;3.25;;
61383;SDS011;47254;49.346;8.798;2022-07-29T00:33:51;4.97;;;3.25;;
61383;SDS011;47254;49.346;8.798;2022-07-29T00:36:16;4.63;;;2.90;;
61383;SDS011;47254;49.346;8.798;2022-07-29T00:38:43;4.53;;;2.73;;
61383;SDS011;47254;49.346;8.798;2022-07-29T00:41:10;10.32;;;3.00;;
61383;SDS011;47254;49.346;8.798;2022-07-29T00:43:36;5.28;;;2.90;;
61383;SDS011;47254;49.346;8.798;2022-07-29T00:46:05;6.65;;;3.05;;
61383;SDS011;47254;49.346;8.798;2022-07-29T00:48:33;6.77;;;3.40;;
61383;SDS011;47254;49.346;8.798;2022-07-29T00:50:58;8.40;;;3.57;;
61383;SDS011;47254;49.346;8.798;2022-07-29T00:53:24;4.88;;;2.95;;
61383;SDS011;47254;49.346;8.798;2022-07-29T00:55:55;5.65;;;3.50;;
61383;SDS011;47254;49.346;8.798;2022-07-29T00:58:21;7.82;;;3.03;;
61383;SDS011;47254;49.346;8.798;2022-07-29T01:00:49;4.45;;;2.88;;
61383;SDS011;47254;49.346;8.798;2022-07-29T01:03:14;6.20;;;3.42;;
61383;SDS011;47254;49.346;8.798;2022-07-29T01:05:42;12.07;;;3.47;;
61383;SDS011;47254;49.346;8.798;2022-07-29T01:08:08;5.80;;;3.25;;
61383;SDS011;47254;49.346;8.798;2022-07-29T01:10:33;6.73;;;3.17;;
61383;SDS011;47254;49.346;8.798;2022-07-29T01:13:03;10.53;;;3.20;;
61383;SDS011;47254;49.346;8.798;2022-07-29T01:15:29;7.60;;;4.13;;
61383;SDS011;47254;49.346;8.798;2022-07-29T01:18:05;7.07;;;3.60;;
61383;SDS011;47254;49.346;8.798;2022-07-29T01:25:45;7.37;;;3.77;;
61383;SDS011;47254;49.346;8.798;2022-07-29T01:30:45;5.88;;;3.75;;
61383;SDS011;47254;49.346;8.798;2022-07-29T01:33:13;5.28;;;3.83;;
61383;SDS011;47254;49.346;8.798;2022-07-29T01:36:04;10.20;;;3.80;;
61383;SDS011;47254;49.346;8.798;2022-07-29T01:38:32;9.05;;;3.92;;
61383;SDS011;47254;49.346;8.798;2022-07-29T01:46:20;9.45;;;4.10;;
61383;SDS011;47254;49.346;8.798;2022-07-29T01:48:52;7.50;;;3.72;;
61383;SDS011;47254;49.346;8.798;2022-07-29T01:51:21;6.72;;;4.22;;
61383;SDS011;47254;49.346;8.798;2022-07-29T01:53:54;5.43;;;4.20;;
61383;SDS011;47254;49.346;8.798;2022-07-29T01:56:20;10.05;;;4.15;;
61383;SDS011;47254;49.346;8.798;2022-07-29T01:58:47;5.55;;;4.22;;
61383;SDS011;47254;49.346;8.798;2022-07-29T02:01:13;5.78;;;4.18;;
61383;SDS011;47254;49.346;8.798;2022-07-29T02:03:45;7.85;;;3.67;;
61383;SDS011;47254;49.346;8.798;2022-07-29T02:06:11;8.13;;;4.35;;
61383;SDS011;47254;49.346;8.798;2022-07-29T02:08:37;9.13;;;4.22;;
61383;SDS011;47254;49.346;8.798;2022-07-29T02:11:03;6.25;;;3.97;;
61383;SDS011;47254;49.346;8.798;2022-07-29T02:13:29;4.82;;;3.38;;
61383;SDS011;47254;49.346;8.798;2022-07-29T02:15:57;9.40;;;3.80;;
61383;SDS011;47254;49.346;8.798;2022-07-29T02:18:23;5.90;;;4.13;;
61383;SDS011;47254;49.346;8.798;2022-07-29T02:20:52;8.70;;;4.18;;
61383;SDS011;47254;49.346;8.798;2022-07-29T02:23:20;6.03;;;4.40;;
61383;SDS011;47254;49.346;8.798;2022-07-29T02:25:48;6.45;;;4.30;;
61383;SDS011;47254;49.346;8.798;2022-07-29T02:28:13;4.75;;;4.22;;
61383;SDS011;47254;49.346;8.798;2022-07-29T02:30:40;5.90;;;4.05;;
61383;SDS011;47254;49.346;8.798;2022-07-29T02:33:05;5.88;;;3.78;;
61383;SDS011;47254;49.346;8.798;2022-07-29T02:35:31;6.70;;;4.32;;
61383;SDS011;47254;49.346;8.798;2022-07-29T02:37:57;5.20;;;3.72;;
61383;SDS011;47254;49.346;8.798;2022-07-29T02:40:41;8.40;;;4.50;;
61383;SDS011;47254;49.346;8.798;2022-07-29T02:43:09;7.28;;;4.38;;
61383;SDS011;47254;49.346;8.798;2022-07-29T02:45:35;10.70;;;4.30;;
61383;SDS011;47254;49.346;8.798;2022-07-29T02:48:05;6.68;;;4.03;;
61383;SDS011;47254;49.346;8.798;2022-07-29T02:50:38;6.28;;;4.03;;
61383;SDS011;47254;49.346;8.798;2022-07-29T02:53:16;7.03;;;4.43;;
61383;SDS011;47254;49.346;8.798;2022-07-29T02:55:43;8.90;;;4.40;;
61383;SDS011;47254;49.346;8.798;2022-07-29T02:58:20;4.78;;;4.22;;
61383;SDS011;47254;49.346;8.798;2022-07-29T03:00:47;6.45;;;3.90;;
61383;SDS011;47254;49.346;8.798;2022-07-29T03:03:16;8.35;;;5.30;;
61383;SDS011;47254;49.346;8.798;2022-07-29T03:05:42;6.82;;;4.28;;
61383;SDS011;47254;49.346;8.798;2022-07-29T03:08:09;8.87;;;4.20;;
61383;SDS011;47254;49.346;8.798;2022-07-29T03:10:34;6.68;;;4.40;;
61383;SDS011;47254;49.346;8.798;2022-07-29T03:12:59;7.85;;;5.28;;
61383;SDS011;47254;49.346;8.798;2022-07-29T03:15:25;13.10;;;4.78;;
61383;SDS011;47254;49.346;8.798;2022-07-29T03:17:50;6.13;;;4.82;;
61383;SDS011;47254;49.346;8.798;2022-07-29T03:20:16;6.63;;;4.55;;
61383;SDS011;47254;49.346;8.798;2022-07-29T03:22:42;6.20;;;4.07;;
61383;SDS011;47254;49.346;8.798;2022-07-29T03:25:11;8.73;;;4.72;;
61383;SDS011;47254;49.346;8.798;2022-07-29T03:27:39;7.00;;;4.32;;
61383;SDS011;47254;49.346;8.798;2022-07-29T03:30:05;7.25;;;4.78;;
61383;SDS011;47254;49.346;8.798;2022-07-29T03:32:31;6.95;;;4.05;;
61383;SDS011;47254;49.346;8.798;2022-07-29T03:34:56;6.13;;;4.40;;
61383;SDS011;47254;49.346;8.798;2022-07-29T03:37:21;11.70;;;4.97;;
61383;SDS011;47254;49.346;8.798;2022-07-29T03:39:49;9.47;;;4.50;;
61383;SDS011;47254;49.346;8.798;2022-07-29T03:42:15;16.40;;;4.97;;
61383;SDS011;47254;49.346;8.798;2022-07-29T03:44:41;7.10;;;4.70;;
61383;SDS011;47254;49.346;8.798;2022-07-29T03:47:07;8.43;;;4.25;;
61383;SDS011;47254;49.346;8.798;2022-07-29T03:49:37;6.53;;;4.40;;
61383;SDS011;47254;49.346;8.798;2022-07-29T03:52:03;11.18;;;6.68;;
61383;SDS011;47254;49.346;8.798;2022-07-29T03:54:28;4.47;;;4.07;;
61383;SDS011;47254;49.346;8.798;2022-07-29T03:56:53;7.40;;;4.40;;
61383;SDS011;47254;49.346;8.798;2022-07-29T03:59:19;8.55;;;5.28;;
61383;SDS011;47254;49.346;8.798;2022-07-29T04:01:48;6.38;;;4.85;;
61383;SDS011;47254;49.346;8.798;2022-07-29T04:04:13;8.57;;;4.25;;
61383;SDS011;47254;49.346;8.798;2022-07-29T04:06:41;7.80;;;4.47;;
61383;SDS011;47254;49.346;8.798;2022-07-29T04:09:07;5.65;;;4.93;;
61383;SDS011;47254;49.346;8.798;2022-07-29T04:11:33;13.02;;;4.70;;
61383;SDS011;47254;49.346;8.798;2022-07-29T04:14:01;8.48;;;4.45;;
61383;SDS011;47254;49.346;8.798;2022-07-29T04:16:26;9.23;;;4.47;;
61383;SDS011;47254;49.346;8.798;2022-07-29T04:18:52;8.98;;;4.95;;
61383;SDS011;47254;49.346;8.798;2022-07-29T04:21:17;8.67;;;4.03;;
61383;SDS011;47254;49.346;8.798;2022-07-29T04:23:44;7.88;;;3.85;;
61383;SDS011;47254;49.346;8.798;2022-07-29T04:26:17;6.07;;;4.40;;
61383;SDS011;47254;49.346;8.798;2022-07-29T04:28:44;8.77;;;4.43;;
61383;SDS011;47254;49.346;8.798;2022-07-29T04:31:10;6.20;;;4.13;;
61383;SDS011;47254;49.346;8.798;2022-07-29T04:33:36;8.23;;;4.13;;
61383;SDS011;47254;49.346;8.798;2022-07-29T04:36:03;4.72;;;4.13;;
61383;SDS011;47254;49.346;8.798;2022-07-29T04:38:29;10.07;;;4.60;;
61383;SDS011;47254;49.346;8.798;2022-07-29T04:40:54;8.93;;;4.47;;
61383;SDS011;47254;49.346;8.798;2022-07-29T04:43:19;8.27;;;4.93;;
61383;SDS011;47254;49.346;8.798;2022-07-29T04:45:47;6.93;;;4.30;;
61383;SDS011;47254;49.346;8.798;2022-07-29T04:48:12;4.70;;;4.20;;
61383;SDS011;47254;49.346;8.798;2022-07-29T04:50:40;5.93;;;4.47;;
61383;SDS011;47254;49.346;8.798;2022-07-29T04:53:07;6.65;;;3.85;;
61383;SDS011;47254;49.346;8.798;2022-07-29T04:55:37;5.25;;;4.25;;
61383;SDS011;47254;49.346;8.798;2022-07-29T04:58:02;7.20;;;4.90;;
61383;SDS011;47254;49.346;8.798;2022-07-29T05:00:29;9.50;;;4.28;;
61383;SDS011;47254;49.346;8.798;2022-07-29T05:02:54;8.37;;;4.70;;
61383;SDS011;47254;49.346;8.798;2022-07-29T05:05:22;5.28;;;4.15;;
61383;SDS011;47254;49.346;8.798;2022-07-29T05:07:47;10.17;;;4.73;;
61383;SDS011;47254;49.346;8.798;2022-07-29T05:10:15;6.30;;;4.28;;
61383;SDS011;47254;49.346;8.798;2022-07-29T05:12:40;7.73;;;4.23;;
61383;SDS011;47254;49.346;8.798;2022-07-29T05:15:08;5.00;;;4.32;;
61383;SDS011;47254;49.346;8.798;2022-07-29T05:17:33;9.55;;;4.45;;
61383;SDS011;47254;49.346;8.798;2022-07-29T05:19:58;7.20;;;4.40;;
61383;SDS011;47254;49.346;8.798;2022-07-29T05:22:24;5.78;;;4.35;;
61383;SDS011;47254;49.346;8.798;2022-07-29T05:24:49;6.03;;;4.10;;
61383;SDS011;47254;49.346;8.798;2022-07-29T05:27:17;8.25;;;4.07;;
61383;SDS011;47254;49.346;8.798;2022-07-29T05:29:44;6.82;;;4.55;;
61383;SDS011;47254;49.346;8.798;2022-07-29T05:32:09;8.60;;;3.93;;
61383;SDS011;47254;49.346;8.798;2022-07-29T05:34:37;6.32;;;3.72;;
61383;SDS011;47254;49.346;8.798;2022-07-29T05:37:02;7.70;;;4.27;;
61383;SDS011;47254;49.346;8.798;2022-07-29T05:39:27;5.57;;;3.80;;
61383;SDS011;47254;49.346;8.798;2022-07-29T05:41:52;7.90;;;3.93;;
61383;SDS011;47254;49.346;8.798;2022-07-29T05:44:18;7.10;;;4.25;;
61383;SDS011;47254;49.346;8.798;2022-07-29T05:46:43;7.30;;;3.53;;
61383;SDS011;47254;49.346;8.798;2022-07-29T05:49:08;9.27;;;3.63;;
61383;SDS011;47254;49.346;8.798;2022-07-29T05:51:34;6.80;;;3.43;;
61383;SDS011;47254;49.346;8.798;2022-07-29T05:53:59;8.05;;;4.22;;
61383;SDS011;47254;49.346;8.798;2022-07-29T05:56:24;4.63;;;3.33;;
61383;SDS011;47254;49.346;8.798;2022-07-29T05:58:49;8.23;;;3.38;;
61383;SDS011;47254;49.346;8.798;2022-07-29T06:01:14;8.93;;;3.93;;
61383;SDS011;47254;49.346;8.798;2022-07-29T06:03:40;6.72;;;3.30;;
61383;SDS011;47254;49.346;8.798;2022-07-29T06:06:06;6.25;;;4.03;;
61383;SDS011;47254;49.346;8.798;2022-07-29T06:08:32;4.15;;;2.90;;
61383;SDS011;47254;49.346;8.798;2022-07-29T06:10:58;10.00;;;3.92;;
61383;SDS011;47254;49.346;8.798;2022-07-29T06:13:23;4.43;;;3.20;;
61383;SDS011;47254;49.346;8.798;2022-07-29T06:15:49;6.73;;;3.10;;
61383;SDS011;47254;49.346;8.798;2022-07-29T06:18:16;4.75;;;3.45;;
61383;SDS011;47254;49.346;8.798;2022-07-29T06:20:42;7.90;;;3.47;;
61383;SDS011;47254;49.346;8.798;2022-07-29T06:23:11;3.60;;;2.83;;
61383;SDS011;47254;49.346;8.798;2022-07-29T06:25:36;4.32;;;2.97;;
61383;SDS011;47254;49.346;8.798;2022-07-29T06:28:02;5.18;;;3.47;;
61383;SDS011;47254;49.346;8.798;2022-07-29T06:30:32;7.47;;;3.40;;
61383;SDS011;47254;49.346;8.798;2022-07-29T06:32:57;6.72;;;2.90;;
61383;SDS011;47254;49.346;8.798;2022-07-29T06:35:22;5.03;;;2.92;;
61383;SDS011;47254;49.346;8.798;2022-07-29T06:37:50;6.82;;;3.17;;
61383;SDS011;47254;49.346;8.798;2022-07-29T06:40:16;6.80;;;3.03;;
61383;SDS011;47254;49.346;8.798;2022-07-29T06:42:59;5.13;;;3.05;;
61383;SDS011;47254;49.346;8.798;2022-07-29T06:45:25;4.37;;;3.13;;
61383;SDS011;47254;49.346;8.798;2022-07-29T06:47:50;6.07;;;3.13;;
61383;SDS011;47254;49.346;8.798;2022-07-29T06:50:15;10.85;;;3.28;;
61383;SDS011;47254;49.346;8.798;2022-07-29T06:52:41;7.03;;;3.80;;
61383;SDS011;47254;49.346;8.798;2022-07-29T06:55:09;11.40;;;3.28;;
61383;SDS011;47254;49.346;8.798;2022-07-29T06:57:35;6.93;;;3.50;;
61383;SDS011;47254;49.346;8.798;2022-07-29T07:00:00;8.53;;;3.10;;
61383;SDS011;47254;49.346;8.798;2022-07-29T07:02:29;5.25;;;3.05;;
61383;SDS011;47254;49.346;8.798;2022-07-29T07:04:54;6.27;;;3.37;;
61383;SDS011;47254;49.346;8.798;2022-07-29T07:07:19;12.75;;;3.17;;
61383;SDS011;47254;49.346;8.798;2022-07-29T07:09:47;5.57;;;3.23;;
61383;SDS011;47254;49.346;8.798;2022-07-29T07:12:12;7.40;;;3.10;;
61383;SDS011;47254;49.346;8.798;2022-07-29T07:14:38;7.53;;;3.33;;
61383;SDS011;47254;49.346;8.798;2022-07-29T07:17:04;4.95;;;3.05;;
61383;SDS011;47254;49.346;8.798;2022-07-29T07:19:34;4.93;;;3.35;;
61383;SDS011;47254;49.346;8.798;2022-07-29T07:21:59;9.52;;;3.40;;
61383;SDS011;47254;49.346;8.798;2022-07-29T07:24:26;5.93;;;2.83;;
61383;SDS011;47254;49.346;8.798;2022-07-29T07:26:51;7.57;;;2.93;;
61383;SDS011;47254;49.346;8.798;2022-07-29T07:29:19;5.03;;;3.60;;
61383;SDS011;47254;49.346;8.798;2022-07-29T07:31:44;5.35;;;3.75;;
61383;SDS011;47254;49.346;8.798;2022-07-29T07:34:10;7.55;;;3.00;;
61383;SDS011;47254;49.346;8.798;2022-07-29T07:36:35;6.88;;;3.17;;
61383;SDS011;47254;49.346;8.798;2022-07-29T07:39:00;7.33;;;2.97;;
61383;SDS011;47254;49.346;8.798;2022-07-29T07:41:26;6.25;;;3.10;;
61383;SDS011;47254;49.346;8.798;2022-07-29T07:43:51;7.77;;;3.33;;
61383;SDS011;47254;49.346;8.798;2022-07-29T07:46:16;5.70;;;3.67;;
61383;SDS011;47254;49.346;8.798;2022-07-29T07:48:44;8.52;;;3.95;;
61383;SDS011;47254;49.346;8.798;2022-07-29T07:51:09;6.83;;;3.60;;
61383;SDS011;47254;49.346;8.798;2022-07-29T07:53:34;3.87;;;3.13;;
61383;SDS011;47254;49.346;8.798;2022-07-29T07:56:00;4.13;;;3.10;;
61383;SDS011;47254;49.346;8.798;2022-07-29T07:58:25;6.25;;;3.92;;
61383;SDS011;47254;49.346;8.798;2022-07-29T08:00:53;5.65;;;3.38;;
61383;SDS011;47254;49.346;8.798;2022-07-29T08:03:18;5.77;;;3.40;;
61383;SDS011;47254;49.346;8.798;2022-07-29T08:05:43;5.07;;;3.43;;
61383;SDS011;47254;49.346;8.798;2022-07-29T08:08:08;8.05;;;3.65;;
61383;SDS011;47254;49.346;8.798;2022-07-29T08:10:34;8.07;;;3.30;;
61383;SDS011;47254;49.346;8.798;2022-07-29T08:13:21;6.18;;;4.28;;
61383;SDS011;47254;49.346;8.798;2022-07-29T08:15:46;3.88;;;3.47;;
61383;SDS011;47254;49.346;8.798;2022-07-29T08:18:12;6.87;;;4.17;;
61383;SDS011;47254;49.346;8.798;2022-07-29T08:20:37;5.78;;;3.20;;
61383;SDS011;47254;49.346;8.798;2022-07-29T08:23:04;6.05;;;3.88;;
61383;SDS011;47254;49.346;8.798;2022-07-29T08:25:33;10.02;;;4.47;;
61383;SDS011;47254;49.346;8.798;2022-07-29T08:27:58;14.35;;;3.90;;
61383;SDS011;47254;49.346;8.798;2022-07-29T08:30:26;13.40;;;3.92;;
61383;SDS011;47254;49.346;8.798;2022-07-29T08:32:51;8.43;;;4.10;;
61383;SDS011;47254;49.346;8.798;2022-07-29T08:35:18;5.55;;;3.80;;
61383;SDS011;47254;49.346;8.798;2022-07-29T08:37:48;13.57;;;4.10;;
61383;SDS011;47254;49.346;8.798;2022-07-29T08:40:16;9.13;;;4.32;;
61383;SDS011;47254;49.346;8.798;2022-07-29T08:42:41;6.33;;;4.33;;
61383;SDS011;47254;49.346;8.798;2022-07-29T08:45:06;6.45;;;4.10;;
61383;SDS011;47254;49.346;8.798;2022-07-29T08:47:32;9.23;;;4.45;;
61383;SDS011;47254;49.346;8.798;2022-07-29T08:50:01;7.03;;;4.57;;
61383;SDS011;47254;49.346;8.798;2022-07-29T08:52:27;8.70;;;4.18;;
61383;SDS011;47254;49.346;8.798;2022-07-29T08:54:53;8.80;;;4.97;;
61383;SDS011;47254;49.346;8.798;2022-07-29T08:57:21;16.65;;;4.68;;
61383;SDS011;47254;49.346;8.798;2022-07-29T08:59:48;5.25;;;4.55;;
61383;SDS011;47254;49.346;8.798;2022-07-29T09:02:20;12.68;;;4.65;;
61383;SDS011;47254;49.346;8.798;2022-07-29T09:04:48;11.60;;;5.57;;
61383;SDS011;47254;49.346;8.798;2022-07-29T09:07:17;16.67;;;4.25;;
61383;SDS011;47254;49.346;8.798;2022-07-29T09:09:45;9.10;;;4.57;;
61383;SDS011;47254;49.346;8.798;2022-07-29T09:12:13;8.63;;;4.80;;
61383;SDS011;47254;49.346;8.798;2022-07-29T09:14:40;7.00;;;4.85;;
61383;SDS011;47254;49.346;8.798;2022-07-29T09:17:08;8.60;;;4.90;;
61383;SDS011;47254;49.346;8.798;2022-07-29T09:19:34;7.30;;;4.85;;
61383;SDS011;47254;49.346;8.798;2022-07-29T09:22:00;12.57;;;5.25;;
61383;SDS011;47254;49.346;8.798;2022-07-29T09:24:27;9.10;;;5.00;;
61383;SDS011;47254;49.346;8.798;2022-07-29T09:26:52;6.88;;;4.70;;
61383;SDS011;47254;49.346;8.798;2022-07-29T09:29:19;6.50;;;4.13;;
61383;SDS011;47254;49.346;8.798;2022-07-29T09:31:46;7.88;;;4.80;;
61383;SDS011;47254;49.346;8.798;2022-07-29T09:34:15;9.40;;;5.05;;
61383;SDS011;47254;49.346;8.798;2022-07-29T09:39:06;7.97;;;4.93;;
61383;SDS011;47254;49.346;8.798;2022-07-29T09:41:43;10.63;;;5.15;;
61383;SDS011;47254;49.346;8.798;2022-07-29T09:44:09;7.53;;;5.30;;
61383;SDS011;47254;49.346;8.798;2022-07-29T09:46:34;9.07;;;4.82;;
61383;SDS011;47254;49.346;8.798;2022-07-29T09:49:13;9.68;;;4.63;;
61383;SDS011;47254;49.346;8.798;2022-07-29T09:51:39;13.50;;;5.10;;
61383;SDS011;47254;49.346;8.798;2022-07-29T09:54:21;14.07;;;5.05;;
61383;SDS011;47254;49.346;8.798;2022-07-29T09:56:48;9.80;;;5.53;;
61383;SDS011;47254;49.346;8.798;2022-07-29T09:59:14;9.32;;;5.97;;
61383;SDS011;47254;49.346;8.798;2022-07-29T10:01:39;7.37;;;5.80;;
61383;SDS011;47254;49.346;8.798;2022-07-29T10:04:05;6.35;;;5.03;;
61383;SDS011;47254;49.346;8.798;2022-07-29T10:06:30;9.38;;;4.75;;
61383;SDS011;47254;49.346;8.798;2022-07-29T10:09:06;8.52;;;5.32;;
61383;SDS011;47254;49.346;8.798;2022-07-29T10:11:32;13.90;;;5.00;;
61383;SDS011;47254;49.346;8.798;2022-07-29T10:13:57;8.53;;;4.73;;
61383;SDS011;47254;49.346;8.798;2022-07-29T10:16:24;10.48;;;5.07;;
61383;SDS011;47254;49.346;8.798;2022-07-29T10:18:52;7.57;;;4.72;;
61383;SDS011;47254;49.346;8.798;2022-07-29T10:21:17;7.93;;;4.90;;
61383;SDS011;47254;49.346;8.798;2022-07-29T10:23:42;14.20;;;5.28;;
61383;SDS011;47254;49.346;8.798;2022-07-29T10:26:08;6.55;;;4.55;;
61383;SDS011;47254;49.346;8.798;2022-07-29T10:28:37;6.68;;;4.68;;
61383;SDS011;47254;49.346;8.798;2022-07-29T10:31:04;8.23;;;4.90;;
61383;SDS011;47254;49.346;8.798;2022-07-29T10:39:05;7.57;;;5.15;;
61383;SDS011;47254;49.346;8.798;2022-07-29T10:44:20;8.13;;;4.20;;
61383;SDS011;47254;49.346;8.798;2022-07-29T10:46:46;11.32;;;5.03;;
61383;SDS011;47254;49.346;8.798;2022-07-29T10:56:55;11.13;;;5.07;;
61383;SDS011;47254;49.346;8.798;2022-07-29T11:01:49;6.77;;;5.40;;
61383;SDS011;47254;49.346;8.798;2022-07-29T11:04:14;5.20;;;4.10;;
61383;SDS011;47254;49.346;8.798;2022-07-29T11:09:27;6.07;;;4.65;;
61383;SDS011;47254;49.346;8.798;2022-07-29T11:11:54;9.07;;;4.68;;
61383;SDS011;47254;49.346;8.798;2022-07-29T11:14:54;6.95;;;4.63;;
61383;SDS011;47254;49.346;8.798;2022-07-29T11:17:20;8.13;;;4.43;;
61383;SDS011;47254;49.346;8.798;2022-07-29T11:19:45;6.93;;;4.70;;
61383;SDS011;47254;49.346;8.798;2022-07-29T11:22:11;7.25;;;5.05;;
61383;SDS011;47254;49.346;8.798;2022-07-29T11:27:38;7.18;;;4.47;;
61383;SDS011;47254;49.346;8.798;2022-07-29T11:30:04;8.48;;;4.50;;
61383;SDS011;47254;49.346;8.798;2022-07-29T11:32:36;7.70;;;4.53;;
61383;SDS011;47254;49.346;8.798;2022-07-29T11:37:38;9.85;;;4.90;;
61383;SDS011;47254;49.346;8.798;2022-07-29T11:42:39;8.55;;;4.28;;
61383;SDS011;47254;49.346;8.798;2022-07-29T11:45:06;4.35;;;3.95;;
61383;SDS011;47254;49.346;8.798;2022-07-29T11:47:33;5.70;;;4.38;;
61383;SDS011;47254;49.346;8.798;2022-07-29T11:49:59;12.35;;;5.38;;
61383;SDS011;47254;49.346;8.798;2022-07-29T11:55:03;8.13;;;5.10;;
61383;SDS011;47254;49.346;8.798;2022-07-29T11:57:28;8.32;;;4.30;;
61383;SDS011;47254;49.346;8.798;2022-07-29T11:59:57;8.50;;;4.78;;
61383;SDS011;47254;49.346;8.798;2022-07-29T12:02:22;5.88;;;4.32;;
61383;SDS011;47254;49.346;8.798;2022-07-29T12:04:50;7.27;;;4.77;;
61383;SDS011;47254;49.346;8.798;2022-07-29T12:07:15;14.40;;;4.40;;
61383;SDS011;47254;49.346;8.798;2022-07-29T12:09:41;10.32;;;4.43;;
61383;SDS011;47254;49.346;8.798;2022-07-29T12:12:15;4.63;;;4.13;;
61383;SDS011;47254;49.346;8.798;2022-07-29T12:14:40;8.95;;;4.28;;
61383;SDS011;47254;49.346;8.798;2022-07-29T12:17:24;4.68;;;3.63;;
61383;SDS011;47254;49.346;8.798;2022-07-29T12:19:50;7.53;;;3.47;;
61383;SDS011;47254;49.346;8.798;2022-07-29T12:22:23;4.20;;;3.67;;
61383;SDS011;47254;49.346;8.798;2022-07-29T12:24:49;10.65;;;3.78;;
61383;SDS011;47254;49.346;8.798;2022-07-29T12:27:16;5.47;;;3.70;;
61383;SDS011;47254;49.346;8.798;2022-07-29T12:29:42;7.38;;;3.95;;
61383;SDS011;47254;49.346;8.798;2022-07-29T12:32:09;6.55;;;3.92;;
61383;SDS011;47254;49.346;8.798;2022-07-29T12:34:39;7.88;;;3.88;;
61383;SDS011;47254;49.346;8.798;2022-07-29T12:37:09;7.10;;;3.90;;
61383;SDS011;47254;49.346;8.798;2022-07-29T12:39:36;8.02;;;3.97;;
61383;SDS011;47254;49.346;8.798;2022-07-29T12:42:10;7.30;;;3.60;;
61383;SDS011;47254;49.346;8.798;2022-07-29T12:44:47;7.63;;;4.10;;
61383;SDS011;47254;49.346;8.798;2022-07-29T12:47:15;6.97;;;3.58;;
61383;SDS011;47254;49.346;8.798;2022-07-29T12:49:41;6.93;;;4.22;;
61383;SDS011;47254;49.346;8.798;2022-07-29T12:52:30;9.50;;;4.22;;
61383;SDS011;47254;49.346;8.798;2022-07-29T12:54:56;11.68;;;4.60;;
61383;SDS011;47254;49.346;8.798;2022-07-29T12:57:21;6.28;;;3.90;;
61383;SDS011;47254;49.346;8.798;2022-07-29T13:00:09;5.18;;;4.13;;
61383;SDS011;47254;49.346;8.798;2022-07-29T13:02:36;11.95;;;3.92;;
61383;SDS011;47254;49.346;8.798;2022-07-29T13:05:01;10.52;;;3.53;;
61383;SDS011;47254;49.346;8.798;2022-07-29T13:07:27;13.30;;;3.80;;
61383;SDS011;47254;49.346;8.798;2022-07-29T13:13:11;30.23;;;4.57;;
61383;SDS011;47254;49.346;8.798;2022-07-29T13:15:38;12.43;;;3.35;;
61383;SDS011;47254;49.346;8.798;2022-07-29T13:18:04;8.85;;;3.83;;
61383;SDS011;47254;49.346;8.798;2022-07-29T13:20:30;12.15;;;3.80;;
61383;SDS011;47254;49.346;8.798;2022-07-29T13:22:59;8.77;;;3.50;;
61383;SDS011;47254;49.346;8.798;2022-07-29T13:27:50;13.30;;;3.47;;
61383;SDS011;47254;49.346;8.798;2022-07-29T13:30:15;6.40;;;3.67;;
61383;SDS011;47254;49.346;8.798;2022-07-29T13:32:40;10.30;;;3.77;;
61383;SDS011;47254;49.346;8.798;2022-07-29T13:35:06;5.38;;;2.53;;
61383;SDS011;47254;49.346;8.798;2022-07-29T13:37:32;5.50;;;3.88;;
61383;SDS011;47254;49.346;8.798;2022-07-29T13:39:59;6.03;;;3.78;;
61383;SDS011;47254;49.346;8.798;2022-07-29T13:42:25;4.60;;;3.42;;
61383;SDS011;47254;49.346;8.798;2022-07-29T13:44:51;8.60;;;4.25;;
61383;SDS011;47254;49.346;8.798;2022-07-29T13:47:16;8.63;;;3.47;;
61383;SDS011;47254;49.346;8.798;2022-07-29T13:49:42;7.05;;;3.80;;
61383;SDS011;47254;49.346;8.798;2022-07-29T13:52:07;7.03;;;4.53;;
61383;SDS011;47254;49.346;8.798;2022-07-29T13:54:32;5.90;;;3.80;;
61383;SDS011;47254;49.346;8.798;2022-07-29T13:56:57;6.10;;;3.28;;
61383;SDS011;47254;49.346;8.798;2022-07-29T13:59:23;7.33;;;3.93;;
61383;SDS011;47254;49.346;8.798;2022-07-29T14:01:48;10.50;;;3.83;;
61383;SDS011;47254;49.346;8.798;2022-07-29T14:04:15;4.43;;;3.63;;
61383;SDS011;47254;49.346;8.798;2022-07-29T14:06:41;7.00;;;3.33;;
61383;SDS011;47254;49.346;8.798;2022-07-29T14:09:06;5.93;;;3.60;;
61383;SDS011;47254;49.346;8.798;2022-07-29T14:11:33;8.77;;;3.75;;
61383;SDS011;47254;49.346;8.798;2022-07-29T14:13:58;4.37;;;3.97;;
61383;SDS011;47254;49.346;8.798;2022-07-29T14:16:24;8.07;;;3.63;;
61383;SDS011;47254;49.346;8.798;2022-07-29T14:18:49;5.97;;;3.80;;
61383;SDS011;47254;49.346;8.798;2022-07-29T14:21:14;10.50;;;3.70;;
61383;SDS011;47254;49.346;8.798;2022-07-29T14:23:39;11.55;;;4.32;;
61383;SDS011;47254;49.346;8.798;2022-07-29T14:26:05;7.63;;;3.55;;
61383;SDS011;47254;49.346;8.798;2022-07-29T14:28:31;10.00;;;3.38;;
61383;SDS011;47254;49.346;8.798;2022-07-29T14:30:56;7.40;;;3.97;;
61383;SDS011;47254;49.346;8.798;2022-07-29T14:33:21;6.57;;;3.50;;
61383;SDS011;47254;49.346;8.798;2022-07-29T14:35:46;6.70;;;2.93;;
61383;SDS011;47254;49.346;8.798;2022-07-29T14:38:14;7.40;;;3.60;;
61383;SDS011;47254;49.346;8.798;2022-07-29T14:40:39;7.40;;;3.60;;
61383;SDS011;47254;49.346;8.798;2022-07-29T14:43:04;7.87;;;3.23;;
61383;SDS011;47254;49.346;8.798;2022-07-29T14:45:32;11.73;;;3.05;;
61383;SDS011;47254;49.346;8.798;2022-07-29T14:47:57;5.37;;;2.93;;
61383;SDS011;47254;49.346;8.798;2022-07-29T14:50:23;5.10;;;3.10;;
61383;SDS011;47254;49.346;8.798;2022-07-29T14:52:48;6.00;;;2.95;;
61383;SDS011;47254;49.346;8.798;2022-07-29T14:55:16;12.02;;;3.30;;
61383;SDS011;47254;49.346;8.798;2022-07-29T14:57:41;7.53;;;3.30;;
61383;SDS011;47254;49.346;8.798;2022-07-29T15:00:06;5.27;;;3.00;;
61383;SDS011;47254;49.346;8.798;2022-07-29T15:02:32;4.40;;;2.58;;
61383;SDS011;47254;49.346;8.798;2022-07-29T15:04:58;7.22;;;2.80;;
61383;SDS011;47254;49.346;8.798;2022-07-29T15:07:23;4.93;;;3.17;;
61383;SDS011;47254;49.346;8.798;2022-07-29T15:09:50;8.20;;;2.60;;
61383;SDS011;47254;49.346;8.798;2022-07-29T15:12:16;6.03;;;3.08;;
61383;SDS011;47254;49.346;8.798;2022-07-29T15:14:41;6.22;;;3.20;;
61383;SDS011;47254;49.346;8.798;2022-07-29T15:17:06;7.13;;;3.03;;
61383;SDS011;47254;49.346;8.798;2022-07-29T15:19:32;3.53;;;2.30;;
61383;SDS011;47254;49.346;8.798;2022-07-29T15:21:57;6.10;;;2.70;;
61383;SDS011;47254;49.346;8.798;2022-07-29T15:24:22;6.47;;;2.90;;
61383;SDS011;47254;49.346;8.798;2022-07-29T15:26:50;4.78;;;2.60;;
61383;SDS011;47254;49.346;8.798;2022-07-29T15:29:17;10.05;;;4.65;;
61383;SDS011;47254;49.346;8.798;2022-07-29T15:31:43;10.57;;;3.63;;
61383;SDS011;47254;49.346;8.798;2022-07-29T15:34:10;6.70;;;2.28;;
61383;SDS011;47254;49.346;8.798;2022-07-29T15:36:36;5.15;;;2.45;;
61383;SDS011;47254;49.346;8.798;2022-07-29T15:39:03;3.90;;;2.25;;